• Join FlightAware (Why Join?)
  • Login
  • US Flag 
10:50PM EST


 

Airport Tracker/Info


-or-


 

Live Flight TrackerFlight Track Log ✈ AWE191 ✈ 3 de Jun de 2012 ✈ KPHX - KSAN

Flight Track Log - Related Links

Times and Time Zones

All times are in EDT time to prevent confusion due to time zone crossing. See the AWE191 flight status page for this flight to view local times or setup timezone preferences in your user account.

Time Position Orientation Groundspeed Altitude Reporting Facility
EDT Latitude Longitude Course Direction KTS MPH feet Rate Location/Type
10:11PM 33.4220 -112.0771 73° East  Level FlightAware Approximate
10:11PM 33.4333 -112.0333 218° Southwest 331 381 1,800  Level Phoenix TRACON
10:16PM 33.1933 -112.2558 234° Southwest 324 373 11,500 2,040 Climbing Albuquerque Center
10:17PM 33.1283 -112.3639 237° Southwest 324 373 13,600 2,100 Climbing Albuquerque Center
10:18PM 33.0717 -112.4694 237° Southwest 350 403 15,700 2,100 Climbing Albuquerque Center
10:19PM 33.0108 -112.5797 238° Southwest 390 449 17,900 2,100 Climbing Albuquerque Center
10:20PM 32.9514 -112.6947 261° West 403 464 19,900 1,800 Climbing Albuquerque Center
10:21PM 32.9325 -112.8344 262° West 410 472 21,600 1,620 Climbing Albuquerque Center
10:22PM 32.9156 -112.9794 261° West 433 498 23,200 1,740 Climbing Albuquerque Center
10:23PM 32.8958 -113.1289 260° West 449 517 25,100 1,980 Climbing Albuquerque Center
10:24PM 32.8742 -113.2731 261° West 454 522 27,200 1,440 Climbing Albuquerque Center
10:25PM 32.8572 -113.4053 261° West 459 528 28,000 360 Climbing Albuquerque Center
10:26PM 32.8375 -113.5472 259° West 454 522 28,000  Level Albuquerque Center
10:28PM 32.7967 -113.8036 261° West 449 517 28,000 -60 Level Los Angeles Center
10:29PM 32.7786 -113.9450 267° West 449 517 27,900  Descending Los Angeles Center
10:30PM 32.7728 -114.0908 269° West 449 517 28,000  Climbing Los Angeles Center
10:31PM 32.7708 -114.2342 269° West 442 509 28,000  Level Los Angeles Center
10:32PM 32.7686 -114.3775 270° West 442 509 28,000  Level Los Angeles Center
10:33PM 32.7686 -114.5206 269° West 442 509 28,000  Level Los Angeles Center
10:34PM 32.7664 -114.6689 269° West 442 509 28,000 -60 Level Los Angeles Center
10:35PM 32.7636 -114.8122 269° West 442 509 27,900 -780 Descending Los Angeles Center
10:36PM 32.7611 -114.9556 269° West 442 509 26,500 -1,500 Descending Los Angeles Center
10:37PM 32.7581 -115.0986 268° West 442 509 25,000 -1,500 Descending Los Angeles Center
10:38PM 32.7531 -115.2419 269° West 442 509 23,500 -1,500 Descending Los Angeles Center
10:39PM 32.7517 -115.3778 268° West 436 502 22,000 -1,500 Descending Los Angeles Center
10:40PM 32.7483 -115.5136 271° West 425 489 20,600 -1,500 Descending Los Angeles Center
10:41PM 32.7511 -115.6444 272° West 413 475 19,100 -1,500 Descending Los Angeles Center
10:42PM 32.7556 -115.7756 270° West 408 470 17,600 -1,320 Descending Los Angeles Center
10:43PM 32.7558 -115.8767 272° West 398 458 16,500 -1,260 Descending Los Angeles Center
10:44PM 32.7603 -116.0100 271° West 381 438 15,100 -1,320 Descending Los Angeles Center
10:45PM 32.7625 -116.1311 271° West 375 432 13,900 -1,200 Descending Los Angeles Center
10:46PM 32.7644 -116.2447 266° West 360 414 12,700 -1,200 Descending Los Angeles Center
10:47PM 32.7581 -116.3508 253° West 346 398 11,500 -1,080 Descending Los Angeles Center
10:48PM 32.7328 -116.4494 251° West 327 376 10,600 -1,560 Descending Los Angeles Center
10:49PM 32.7075 -116.5383 253° West 311 358 8,400 -2,160 Descending Los Angeles Center
10:50PM 32.6842 -116.6294 255° West 294 338 6,300 -1,260 Descending Los Angeles Center
10:51PM 32.6669 -116.7033 253° West 270 311 5,900 -180 Descending Los Angeles Center
10:52PM 32.6478 -116.7772 270° West 250 288 6,000 -360 Climbing Los Angeles Center
10:53PM 32.6475 -116.8414 291° West 223 257 5,200 -1,140 Descending Los Angeles Center
10:53PM 32.6667 -116.9000 287° West 185 213 3,900 -840 Descending Southern California TRACON
10:54PM 32.6833 -116.9667 270° West 184 212 3,600 -660 Descending Southern California TRACON
10:55PM 32.6833 -117.0167 270° West 181 208 2,600 -1,020 Descending Southern California TRACON